Time;durP1;ratioP1;P1;durP2;ratioP2;P2;SDS_P1;SDS_P2;PMS_P1;PMS_P2;Temp;Humidity;BMP_temperature;BMP_pressure;BME280_temperature;BME280_humidity;BME280_pressure;Samples;Min_cycle;Max_cycle;Signal;HPM_P1;HPM_P2
2022/09/24 00:00:01;;;;;;;14.90;3.57;;;;;;;;;;6216080;23;20964;-90
2022/09/24 00:02:32;;;;;;;14.07;3.10;;;;;;;;;;6215063;23;20399;-90
2022/09/24 00:05:00;;;;;;;12.83;3.30;;;;;;;;;;6215442;23;20450;-90
2022/09/24 00:07:29;;;;;;;14.20;3.90;;;;;;;;;;6215218;23;20399;-90
2022/09/24 00:10:04;;;;;;;18.53;3.67;;;;;;;;;;6191050;23;20384;-89
2022/09/24 00:12:32;;;;;;;21.60;3.30;;;;;;;;;;6191134;23;20413;-90
2022/09/24 00:14:59;;;;;;;19.10;3.60;;;;;;;;;;6191128;23;20465;-90
2022/09/24 00:17:28;;;;;;;18.30;3.43;;;;;;;;;;6190406;23;20855;-90
2022/09/24 00:19:58;;;;;;;17.20;3.60;;;;;;;;;;6214942;23;20410;-90
2022/09/24 00:22:27;;;;;;;9.97;2.63;;;;;;;;;;6215424;23;20398;-90
2022/09/24 00:27:43;;;;;;;15.30;3.57;;;;;;;;;;6216223;23;20448;-90
2022/09/24 00:30:12;;;;;;;20.37;3.50;;;;;;;;;;6214083;23;20450;-90
2022/09/24 00:32:41;;;;;;;18.93;4.00;;;;;;;;;;6190781;23;20420;-89
2022/09/24 00:35:09;;;;;;;14.07;3.43;;;;;;;;;;6191020;23;20427;-90
2022/09/24 00:37:38;;;;;;;22.23;4.07;;;;;;;;;;6191012;23;20395;-90
2022/09/24 00:40:06;;;;;;;17.53;3.57;;;;;;;;;;6189967;23;20494;-89
2022/09/24 00:42:40;;;;;;;19.77;3.53;;;;;;;;;;6190955;23;20471;-89
2022/09/24 00:45:08;;;;;;;16.47;3.17;;;;;;;;;;6190524;23;20406;-90
2022/09/24 00:47:39;;;;;;;11.13;3.53;;;;;;;;;;6214829;23;20427;-90
2022/09/24 00:50:16;;;;;;;16.10;3.80;;;;;;;;;;6214673;23;20817;-90
2022/09/24 00:52:45;;;;;;;11.20;2.90;;;;;;;;;;6215346;23;20383;-90
2022/09/24 00:55:19;;;;;;;24.83;3.97;;;;;;;;;;6190321;23;20475;-90
2022/09/24 00:57:48;;;;;;;12.20;3.87;;;;;;;;;;6189959;23;20404;-90
2022/09/24 01:00:16;;;;;;;21.47;3.20;;;;;;;;;;6190742;23;20398;-90
2022/09/24 01:02:45;;;;;;;18.40;3.90;;;;;;;;;;6190172;23;20411;-89
2022/09/24 01:05:13;;;;;;;13.10;3.57;;;;;;;;;;6191198;23;20870;-89
2022/09/24 01:07:47;;;;;;;13.93;3.57;;;;;;;;;;6190652;23;20442;-89
2022/09/24 01:10:46;;;;;;;16.37;4.73;;;;;;;;;;6214787;23;20457;-90
2022/09/24 01:13:08;;;;;;;17.80;3.17;;;;;;;;;;6215158;23;20426;-90
2022/09/24 01:15:38;;;;;;;13.60;3.37;;;;;;;;;;6190278;23;20400;-89
2022/09/24 01:18:14;;;;;;;14.93;3.20;;;;;;;;;;6189750;23;20414;-90
2022/09/24 01:20:46;;;;;;;9.47;2.77;;;;;;;;;;6214999;23;20419;-89
2022/09/24 01:23:34;;;;;;;15.80;3.37;;;;;;;;;;6189696;23;20893;-90
2022/09/24 01:26:11;;;;;;;13.60;3.17;;;;;;;;;;6214577;23;20411;-89
2022/09/24 01:29:04;;;;;;;8.50;2.87;;;;;;;;;;6189446;23;20972;-90
2022/09/24 01:31:59;;;;;;;5.30;2.50;;;;;;;;;;6205652;23;20395;-89
2022/09/24 01:34:29;;;;;;;8.60;2.70;;;;;;;;;;6175158;23;20443;-90
2022/09/24 01:36:58;;;;;;;13.47;2.90;;;;;;;;;;6190044;23;20395;-90
2022/09/24 01:39:49;;;;;;;13.63;3.57;;;;;;;;;;6189583;23;20465;-90
2022/09/24 01:42:17;;;;;;;15.27;3.30;;;;;;;;;;6128879;23;20468;-90
2022/09/24 01:44:45;;;;;;;6.10;2.83;;;;;;;;;;6129590;23;20472;-89
2022/09/24 01:47:14;;;;;;;8.90;3.13;;;;;;;;;;6128920;23;20453;-89
2022/09/24 01:49:41;;;;;;;8.27;2.63;;;;;;;;;;6129257;23;20460;-88
2022/09/24 01:52:09;;;;;;;9.97;3.40;;;;;;;;;;6105585;23;20394;-90
2022/09/24 01:54:49;;;;;;;12.23;3.27;;;;;;;;;;6129057;23;20441;-89
2022/09/24 01:57:21;;;;;;;10.37;3.20;;;;;;;;;;6106834;23;20402;-90
2022/09/24 01:59:55;;;;;;;7.47;2.80;;;;;;;;;;6105157;23;20456;-89
2022/09/24 02:02:27;;;;;;;10.00;3.47;;;;;;;;;;6105074;23;20480;-90
2022/09/24 02:05:02;;;;;;;9.57;3.10;;;;;;;;;;6130166;23;20382;-89
2022/09/24 02:07:57;;;;;;;6.73;2.83;;;;;;;;;;6105153;23;20461;-89
2022/09/24 02:10:27;;;;;;;9.60;2.90;;;;;;;;;;6129163;23;20785;-90
2022/09/24 02:12:56;;;;;;;10.77;3.37;;;;;;;;;;6129215;23;20468;-90
2022/09/24 02:15:25;;;;;;;10.53;2.97;;;;;;;;;;6129244;23;20432;-89
2022/09/24 02:18:01;;;;;;;8.23;2.73;;;;;;;;;;6107209;23;20408;-90
2022/09/24 02:20:29;;;;;;;9.87;3.33;;;;;;;;;;6187606;23;20774;-90
2022/09/24 02:22:57;;;;;;;8.57;2.93;;;;;;;;;;6190492;23;20757;-89
2022/09/24 02:25:38;;;;;;;12.77;3.63;;;;;;;;;;6190684;23;20403;-90
2022/09/24 02:28:06;;;;;;;9.13;3.47;;;;;;;;;;6216686;23;20446;-89
2022/09/24 02:30:44;;;;;;;8.70;3.00;;;;;;;;;;6191758;23;20392;-90
2022/09/24 02:35:58;;;;;;;8.33;3.33;;;;;;;;;;6216631;23;20396;-89
2022/09/24 02:38:26;;;;;;;9.20;3.33;;;;;;;;;;6191369;23;20408;-90
2022/09/24 02:40:56;;;;;;;10.90;3.10;;;;;;;;;;6191601;23;20384;-90
2022/09/24 02:43:24;;;;;;;12.53;3.07;;;;;;;;;;6217408;23;20412;-89
2022/09/24 02:45:54;;;;;;;13.40;3.50;;;;;;;;;;6191731;23;20969;-90
2022/09/24 02:48:21;;;;;;;12.57;3.33;;;;;;;;;;6191710;23;20942;-89
2022/09/24 02:51:07;;;;;;;8.20;3.17;;;;;;;;;;6192256;23;20407;-90
2022/09/24 02:53:35;;;;;;;11.20;3.47;;;;;;;;;;6215749;23;20435;-90
2022/09/24 02:56:03;;;;;;;11.33;3.43;;;;;;;;;;6191339;23;20458;-90
2022/09/24 02:58:31;;;;;;;7.43;2.40;;;;;;;;;;6191240;23;20458;-90
2022/09/24 03:00:59;;;;;;;8.10;2.90;;;;;;;;;;6191094;23;20793;-90
2022/09/24 03:03:27;;;;;;;11.77;2.97;;;;;;;;;;6190700;23;20414;-90
2022/09/24 03:05:55;;;;;;;9.80;3.07;;;;;;;;;;6215765;23;20403;-90
2022/09/24 03:08:23;;;;;;;16.20;3.40;;;;;;;;;;6191255;23;20415;-89
2022/09/24 03:10:51;;;;;;;7.80;2.90;;;;;;;;;;6216129;23;20384;-90
2022/09/24 03:13:19;;;;;;;10.70;3.27;;;;;;;;;;6190978;23;20458;-89
2022/09/24 03:15:47;;;;;;;11.87;3.23;;;;;;;;;;6190561;23;20941;-89
2022/09/24 03:18:16;;;;;;;8.63;2.90;;;;;;;;;;6190671;23;20399;-89
2022/09/24 03:20:55;;;;;;;10.10;2.87;;;;;;;;;;6215969;23;20465;-90
2022/09/24 03:23:23;;;;;;;9.93;3.47;;;;;;;;;;6190625;23;20490;-89
2022/09/24 03:25:50;;;;;;;8.37;2.90;;;;;;;;;;6191641;23;20385;-90
2022/09/24 03:28:20;;;;;;;8.80;3.10;;;;;;;;;;6190846;23;20473;-89
2022/09/24 03:31:00;;;;;;;13.63;3.80;;;;;;;;;;6190848;23;20774;-90
2022/09/24 03:33:53;;;;;;;6.87;2.63;;;;;;;;;;6215333;23;20399;-90
2022/09/24 03:36:23;;;;;;;8.97;2.63;;;;;;;;;;6213518;23;20399;-89
2022/09/24 03:38:54;;;;;;;4.80;2.60;;;;;;;;;;6191523;23;20804;-90
2022/09/24 03:41:23;;;;;;;5.80;3.07;;;;;;;;;;6215986;23;20418;-89
2022/09/24 03:43:51;;;;;;;7.37;3.00;;;;;;;;;;6191053;23;20406;-89
2022/09/24 03:46:18;;;;;;;8.17;2.90;;;;;;;;;;6215273;23;20399;-89
2022/09/24 03:48:46;;;;;;;8.50;2.67;;;;;;;;;;6190485;23;20831;-89
2022/09/24 03:51:14;;;;;;;6.90;2.57;;;;;;;;;;6190612;23;20400;-89
2022/09/24 03:53:42;;;;;;;9.00;2.80;;;;;;;;;;6190730;23;20391;-89
2022/09/24 03:56:10;;;;;;;10.60;3.77;;;;;;;;;;6190856;23;20392;-90
2022/09/24 03:58:37;;;;;;;14.87;3.07;;;;;;;;;;6215906;23;20428;-89
2022/09/24 04:01:06;;;;;;;6.47;2.80;;;;;;;;;;6215777;23;20388;-89
2022/09/24 04:03:34;;;;;;;8.37;3.27;;;;;;;;;;6217148;23;20402;-89
2022/09/24 04:06:02;;;;;;;10.37;2.83;;;;;;;;;;6191164;23;20454;-89
2022/09/24 04:08:31;;;;;;;8.07;3.07;;;;;;;;;;6191319;23;20417;-90
2022/09/24 04:11:13;;;;;;;13.93;2.17;;;;;;;;;;6191204;23;20384;-95
2022/09/24 04:13:49;;;;;;;7.30;2.83;;;;;;;;;;6215591;23;20407;-89
2022/09/24 04:16:18;;;;;;;5.30;2.50;;;;;;;;;;6215924;23;20387;-90
2022/09/24 04:18:54;;;;;;;4.53;2.30;;;;;;;;;;6190326;23;20470;-89
2022/09/24 04:21:25;;;;;;;8.87;3.20;;;;;;;;;;6191080;23;20793;-89
2022/09/24 04:23:52;;;;;;;7.00;2.57;;;;;;;;;;6216083;23;20474;-90
2022/09/24 04:26:22;;;;;;;8.33;3.33;;;;;;;;;;6190935;23;20415;-89
2022/09/24 04:28:58;;;;;;;7.83;2.57;;;;;;;;;;6191098;23;20404;-89
2022/09/24 04:31:34;;;;;;;8.13;3.17;;;;;;;;;;6214742;23;20437;-90
2022/09/24 04:34:08;;;;;;;8.20;2.90;;;;;;;;;;6215551;23;20407;-90
2022/09/24 04:36:37;;;;;;;11.97;3.43;;;;;;;;;;6190723;23;20945;-90
2022/09/24 04:39:06;;;;;;;8.80;3.27;;;;;;;;;;6190402;23;20408;-90
2022/09/24 04:41:36;;;;;;;9.97;2.90;;;;;;;;;;6215015;23;20410;-90
2022/09/24 04:44:04;;;;;;;9.23;2.60;;;;;;;;;;6190215;23;20404;-89
2022/09/24 04:47:01;;;;;;;5.47;2.37;;;;;;;;;;6190299;23;20424;-91
2022/09/24 04:49:32;;;;;;;7.07;3.00;;;;;;;;;;6185494;23;20397;-90
2022/09/24 04:52:00;;;;;;;13.40;2.87;;;;;;;;;;6185794;23;20423;-90
2022/09/24 04:54:28;;;;;;;10.13;2.13;;;;;;;;;;6160956;23;20446;-90
2022/09/24 04:56:55;;;;;;;6.63;2.70;;;;;;;;;;6161817;23;20381;-91
2022/09/24 04:59:24;;;;;;;7.93;2.37;;;;;;;;;;6162267;23;20396;-90
2022/09/24 05:01:53;;;;;;;6.03;2.57;;;;;;;;;;6160630;23;20389;-90
2022/09/24 05:04:21;;;;;;;11.43;3.00;;;;;;;;;;6160922;23;20411;-90
2022/09/24 05:06:49;;;;;;;5.13;2.37;;;;;;;;;;6160418;23;20899;-89
2022/09/24 05:09:21;;;;;;;4.53;2.57;;;;;;;;;;6160347;23;20758;-90
2022/09/24 05:11:58;;;;;;;8.73;2.20;;;;;;;;;;6185172;23;20389;-90
2022/09/24 05:14:32;;;;;;;6.87;2.20;;;;;;;;;;6185147;23;20436;-90
2022/09/24 05:17:06;;;;;;;7.10;2.60;;;;;;;;;;6185023;23;20385;-90
2022/09/24 05:19:34;;;;;;;11.43;2.27;;;;;;;;;;6160297;23;20420;-90
2022/09/24 05:22:04;;;;;;;10.37;2.50;;;;;;;;;;6184682;23;20408;-90
2022/09/24 05:24:31;;;;;;;9.87;2.50;;;;;;;;;;6184906;23;20413;-90
2022/09/24 05:27:09;;;;;;;8.70;2.57;;;;;;;;;;6160866;23;20484;-90
2022/09/24 05:29:37;;;;;;;6.20;2.43;;;;;;;;;;6163514;23;20747;-89
2022/09/24 05:32:06;;;;;;;6.77;1.90;;;;;;;;;;6184949;23;20401;-91
2022/09/24 05:34:41;;;;;;;8.00;2.43;;;;;;;;;;6160435;23;20818;-89
2022/09/24 05:37:09;;;;;;;9.33;2.30;;;;;;;;;;6160721;23;20687;-90
2022/09/24 05:39:43;;;;;;;9.60;2.10;;;;;;;;;;6159789;23;20408;-90
2022/09/24 05:42:18;;;;;;;6.30;1.93;;;;;;;;;;6184744;23;20388;-91
2022/09/24 05:44:55;;;;;;;11.77;2.20;;;;;;;;;;6160440;23;20459;-90
2022/09/24 05:47:22;;;;;;;8.30;2.13;;;;;;;;;;6168970;23;20489;-90
2022/09/24 05:49:50;;;;;;;6.70;2.27;;;;;;;;;;6190011;23;20408;-90
2022/09/24 05:52:17;;;;;;;6.60;1.90;;;;;;;;;;6190041;23;20385;-90
2022/09/24 05:54:51;;;;;;;7.80;2.30;;;;;;;;;;6189215;23;20439;-90
2022/09/24 05:57:22;;;;;;;8.13;2.07;;;;;;;;;;6190445;23;20760;-90
2022/09/24 05:59:49;;;;;;;9.70;2.53;;;;;;;;;;6214539;23;20384;-90
2022/09/24 06:02:20;;;;;;;13.63;2.10;;;;;;;;;;6214385;23;20395;-90
2022/09/24 06:04:53;;;;;;;11.20;1.87;;;;;;;;;;6216324;23;20418;-89
2022/09/24 06:07:27;;;;;;;6.27;1.90;;;;;;;;;;6214946;23;20388;-90
2022/09/24 06:10:02;;;;;;;8.47;2.10;;;;;;;;;;6189811;23;20767;-90
2022/09/24 06:12:33;;;;;;;11.00;2.20;;;;;;;;;;6190381;23;20863;-91
2022/09/24 06:15:02;;;;;;;4.53;1.97;;;;;;;;;;6191251;23;20787;-90
2022/09/24 06:17:31;;;;;;;8.83;2.20;;;;;;;;;;6214520;23;20891;-89
2022/09/24 06:20:00;;;;;;;6.47;2.10;;;;;;;;;;6214579;23;20514;-89
2022/09/24 06:22:38;;;;;;;8.03;1.80;;;;;;;;;;6190125;23;20384;-90
2022/09/24 06:25:06;;;;;;;5.00;1.87;;;;;;;;;;6216629;23;20380;-91
2022/09/24 06:27:34;;;;;;;14.03;2.50;;;;;;;;;;6214589;23;20407;-90
2022/09/24 06:30:01;;;;;;;8.33;2.10;;;;;;;;;;6215098;23;20889;-91
2022/09/24 06:32:29;;;;;;;6.23;2.27;;;;;;;;;;6189161;23;20384;-90
2022/09/24 06:34:57;;;;;;;11.73;2.33;;;;;;;;;;6189368;23;20456;-90
2022/09/24 06:37:26;;;;;;;5.07;1.67;;;;;;;;;;6214696;23;20879;-90
2022/09/24 06:39:53;;;;;;;4.43;1.90;;;;;;;;;;6214316;23;20761;-89
2022/09/24 06:42:20;;;;;;;7.07;2.77;;;;;;;;;;6189510;23;20458;-90
2022/09/24 06:44:49;;;;;;;11.67;2.37;;;;;;;;;;6214118;23;20753;-90
2022/09/24 06:47:16;;;;;;;9.17;2.07;;;;;;;;;;6189620;23;20770;-89
2022/09/24 06:49:45;;;;;;;13.67;2.50;;;;;;;;;;6216018;23;20391;-90
2022/09/24 06:52:22;;;;;;;8.20;2.00;;;;;;;;;;6190007;23;20510;-90
2022/09/24 06:54:58;;;;;;;4.80;2.53;;;;;;;;;;6214248;23;20447;-89
2022/09/24 06:57:26;;;;;;;5.80;1.70;;;;;;;;;;6214195;23;20407;-90
2022/09/24 06:59:55;;;;;;;8.73;2.53;;;;;;;;;;6190358;23;20410;-90
2022/09/24 07:02:22;;;;;;;13.83;2.37;;;;;;;;;;6189665;23;20408;-89
2022/09/24 07:04:52;;;;;;;5.67;2.10;;;;;;;;;;6214301;23;20458;-90
2022/09/24 07:07:30;;;;;;;9.00;1.83;;;;;;;;;;6189937;23;20392;-89
2022/09/24 07:10:05;;;;;;;8.60;2.37;;;;;;;;;;6192364;23;20399;-90
2022/09/24 07:12:33;;;;;;;7.53;2.20;;;;;;;;;;6191853;23;20391;-90
2022/09/24 07:15:04;;;;;;;7.27;2.03;;;;;;;;;;6216624;23;20929;-90
2022/09/24 07:17:35;;;;;;;14.17;1.80;;;;;;;;;;6215999;23;20384;-89
2022/09/24 07:20:03;;;;;;;17.53;2.30;;;;;;;;;;6217937;23;20446;-90
2022/09/24 07:22:31;;;;;;;10.27;2.60;;;;;;;;;;6190398;23;20407;-90
2022/09/24 07:25:20;;;;;;;12.93;2.67;;;;;;;;;;6217348;23;20412;-90
2022/09/24 07:27:59;;;;;;;7.60;2.13;;;;;;;;;;6216273;23;20384;-90
2022/09/24 07:30:29;;;;;;;9.00;2.60;;;;;;;;;;6191436;23;20404;-90
2022/09/24 07:32:56;;;;;;;5.80;2.00;;;;;;;;;;6215506;23;20399;-90
2022/09/24 07:35:24;;;;;;;9.30;2.50;;;;;;;;;;6216178;23;20442;-90
2022/09/24 07:37:58;;;;;;;7.40;2.30;;;;;;;;;;6190878;23;20391;-90
2022/09/24 07:40:26;;;;;;;6.23;2.23;;;;;;;;;;6191695;23;20387;-90
2022/09/24 07:42:55;;;;;;;8.87;2.80;;;;;;;;;;6215934;23;20414;-90
2022/09/24 07:45:23;;;;;;;5.33;2.23;;;;;;;;;;6191286;23;20396;-91
2022/09/24 07:48:00;;;;;;;7.17;2.70;;;;;;;;;;6190911;23;20424;-92
2022/09/24 07:50:29;;;;;;;11.07;3.47;;;;;;;;;;6215266;23;20469;-90
2022/09/24 07:52:56;;;;;;;10.53;2.30;;;;;;;;;;6190708;23;20411;-90
2022/09/24 07:55:24;;;;;;;12.10;2.37;;;;;;;;;;6191184;23;20948;-90
2022/09/24 07:57:59;;;;;;;10.23;2.60;;;;;;;;;;6192579;23;20395;-90
2022/09/24 08:00:26;;;;;;;10.80;2.60;;;;;;;;;;6191352;23;20470;-91
2022/09/24 08:02:56;;;;;;;7.80;2.27;;;;;;;;;;6191670;23;20416;-90
2022/09/24 08:05:29;;;;;;;10.97;2.30;;;;;;;;;;6191157;23;20418;-90
2022/09/24 08:07:59;;;;;;;8.40;2.00;;;;;;;;;;6191853;23;20388;-90
2022/09/24 08:10:27;;;;;;;6.40;2.10;;;;;;;;;;6191244;23;20483;-93
2022/09/24 08:12:58;;;;;;;12.23;2.10;;;;;;;;;;6190539;23;20403;-90
2022/09/24 08:15:31;;;;;;;6.80;2.30;;;;;;;;;;6192707;23;20443;-91
2022/09/24 08:18:09;;;;;;;5.77;2.17;;;;;;;;;;6191062;23;20454;-91
2022/09/24 08:20:39;;;;;;;4.80;1.70;;;;;;;;;;6192021;23;20711;-90
2022/09/24 08:23:27;;;;;;;11.20;2.20;;;;;;;;;;6216898;23;20392;-90
2022/09/24 08:25:56;;;;;;;9.07;1.97;;;;;;;;;;6218256;23;20420;-91
2022/09/24 08:28:28;;;;;;;4.73;2.07;;;;;;;;;;6216807;23;20388;-90
2022/09/24 08:30:59;;;;;;;7.33;2.10;;;;;;;;;;6217060;23;20404;-91
2022/09/24 08:33:30;;;;;;;11.60;1.97;;;;;;;;;;6217735;23;20388;-91
2022/09/24 08:35:58;;;;;;;3.93;1.57;;;;;;;;;;6216484;23;20761;-91
2022/09/24 08:38:31;;;;;;;7.17;1.87;;;;;;;;;;6216820;23;20383;-91
2022/09/24 08:41:12;;;;;;;6.03;1.70;;;;;;;;;;6217746;23;20973;-91
2022/09/24 08:43:42;;;;;;;8.10;1.80;;;;;;;;;;6216319;23;20434;-91
2022/09/24 08:52:41;;;;;;;3.87;1.40;;;;;;;;;;6218284;23;20374;-91
2022/09/24 08:55:40;;;;;;;12.10;1.73;;;;;;;;;;6217100;23;20380;-91
2022/09/24 08:58:22;;;;;;;8.87;2.40;;;;;;;;;;6204338;23;20406;-91
2022/09/24 09:00:56;;;;;;;6.70;1.70;;;;;;;;;;6190453;23;20441;-89
2022/09/24 09:03:54;;;;;;;5.47;1.40;;;;;;;;;;6216193;23;20391;-93
2022/09/24 09:12:40;;;;;;;4.93;1.27;;;;;;;;;;6217439;23;20871;-92
2022/09/24 09:15:11;;;;;;;5.03;1.53;;;;;;;;;;6215060;23;20475;-91
2022/09/24 09:20:37;;;;;;;5.83;1.67;;;;;;;;;;6215753;23;20408;-91
2022/09/24 09:23:07;;;;;;;5.40;1.50;;;;;;;;;;6215281;23;20407;-91
2022/09/24 09:25:36;;;;;;;4.53;1.00;;;;;;;;;;6190649;23;20384;-91
2022/09/24 09:28:16;;;;;;;5.53;1.83;;;;;;;;;;6216609;23;20437;-91
2022/09/24 09:30:59;;;;;;;4.43;1.10;;;;;;;;;;6215463;23;20407;-92
2022/09/24 09:33:35;;;;;;;5.33;1.17;;;;;;;;;;6215552;23;20399;-92
2022/09/24 09:36:21;;;;;;;6.47;1.10;;;;;;;;;;6190626;23;20423;-92
2022/09/24 09:38:48;;;;;;;3.80;1.13;;;;;;;;;;6215336;23;20411;-91
2022/09/24 09:41:34;;;;;;;5.73;1.20;;;;;;;;;;6215873;23;20835;-92
2022/09/24 09:44:24;;;;;;;4.30;1.53;;;;;;;;;;6190747;23;20388;-91
2022/09/24 09:47:07;;;;;;;5.37;1.20;;;;;;;;;;6212839;23;20400;-91
2022/09/24 09:49:49;;;;;;;2.13;1.20;;;;;;;;;;6214651;23;20414;-92
2022/09/24 09:52:30;;;;;;;4.93;1.13;;;;;;;;;;6190172;23;20411;-91
2022/09/24 09:55:04;;;;;;;5.50;1.40;;;;;;;;;;6214896;23;20438;-92
2022/09/24 09:57:34;;;;;;;6.30;1.37;;;;;;;;;;6215793;23;20435;-92
2022/09/24 10:00:02;;;;;;;7.43;2.60;;;;;;;;;;6215132;23;20400;-90
2022/09/24 10:02:30;;;;;;;9.37;2.67;;;;;;;;;;6214627;23;20867;-91
2022/09/24 10:05:00;;;;;;;7.33;1.60;;;;;;;;;;6189659;23;20428;-91
2022/09/24 10:07:31;;;;;;;9.73;1.60;;;;;;;;;;6214387;23;20403;-92
2022/09/24 10:10:18;;;;;;;5.47;1.13;;;;;;;;;;6215594;23;20779;-92
2022/09/24 10:12:45;;;;;;;8.33;1.93;;;;;;;;;;6189197;23;20408;-92
2022/09/24 10:15:36;;;;;;;5.00;1.27;;;;;;;;;;6190241;23;20474;-91
2022/09/24 10:18:21;;;;;;;7.67;1.40;;;;;;;;;;6214396;23;20423;-90
2022/09/24 10:20:51;;;;;;;6.33;1.70;;;;;;;;;;6213992;23;20408;-91
2022/09/24 10:23:20;;;;;;;6.00;1.40;;;;;;;;;;6189771;23;20798;-92
2022/09/24 10:25:49;;;;;;;5.00;1.03;;;;;;;;;;6215644;23;20784;-92
2022/09/24 10:31:13;;;;;;;9.93;1.20;;;;;;;;;;6214860;23;20494;-92
2022/09/24 10:33:49;;;;;;;3.97;0.70;;;;;;;;;;6214588;23;20712;-91
2022/09/24 10:36:19;;;;;;;4.40;1.00;;;;;;;;;;6190069;23;20489;-91
2022/09/24 10:38:50;;;;;;;4.27;1.13;;;;;;;;;;6190311;23;20918;-92
2022/09/24 10:41:30;;;;;;;3.30;1.03;;;;;;;;;;6214995;23;20399;-91
2022/09/24 10:44:02;;;;;;;6.63;1.37;;;;;;;;;;6190666;23;20411;-91
2022/09/24 10:50:01;;;;;;;3.30;0.80;;;;;;;;;;6188677;23;20873;-91
2022/09/24 10:52:45;;;;;;;3.10;1.00;;;;;;;;;;6187847;23;20901;-91
2022/09/24 11:01:04;;;;;;;4.67;1.60;;;;;;;;;;6188218;23;20408;-91
2022/09/24 11:03:41;;;;;;;6.67;1.03;;;;;;;;;;6186107;23;20742;-91
2022/09/24 11:06:31;;;;;;;6.30;1.03;;;;;;;;;;6186071;23;20412;-90
2022/09/24 11:09:15;;;;;;;4.37;0.90;;;;;;;;;;6186198;23;20408;-91
2022/09/24 11:11:50;;;;;;;7.73;1.60;;;;;;;;;;6186035;23;20408;-90
2022/09/24 11:14:18;;;;;;;5.53;1.00;;;;;;;;;;6185871;23;20745;-91
2022/09/24 11:16:58;;;;;;;4.43;1.00;;;;;;;;;;6187472;23;20432;-90
2022/09/24 11:19:46;;;;;;;2.60;1.07;;;;;;;;;;6186066;23;20395;-90
2022/09/24 11:22:14;;;;;;;4.80;1.00;;;;;;;;;;6185407;23;20431;-90
2022/09/24 11:24:48;;;;;;;6.50;1.30;;;;;;;;;;6187118;23;20780;-90
2022/09/24 11:27:25;;;;;;;9.37;1.50;;;;;;;;;;6187552;23;20381;-94
2022/09/24 11:29:52;;;;;;;7.57;1.57;;;;;;;;;;6187011;23;20404;-91
2022/09/24 11:32:46;;;;;;;8.30;1.37;;;;;;;;;;6185530;23;20408;-91
2022/09/24 11:38:33;;;;;;;7.43;0.93;;;;;;;;;;6188586;23;20420;-93
2022/09/24 11:41:20;;;;;;;50.40;3.20;;;;;;;;;;6183169;23;20497;-93
2022/09/24 11:44:10;;;;;;;27.87;2.50;;;;;;;;;;6186525;23;20499;-90
2022/09/24 11:46:39;;;;;;;68.43;5.20;;;;;;;;;;6187255;23;20385;-93
2022/09/24 11:49:12;;;;;;;5.97;1.87;;;;;;;;;;6208031;23;20428;-92
2022/09/24 11:52:04;;;;;;;8.23;1.60;;;;;;;;;;6217495;23;20396;-92
2022/09/24 11:57:50;;;;;;;8.77;1.57;;;;;;;;;;6217039;23;20447;-91
2022/09/24 12:00:19;;;;;;;5.03;1.10;;;;;;;;;;6215660;23;20425;-91
2022/09/24 12:02:49;;;;;;;7.43;0.97;;;;;;;;;;6216310;23;20389;-93
2022/09/24 12:05:35;;;;;;;3.97;1.10;;;;;;;;;;6215934;23;20419;-89
2022/09/24 12:08:07;;;;;;;5.00;1.60;;;;;;;;;;6215210;23;20473;-93
2022/09/24 12:10:42;;;;;;;4.00;1.43;;;;;;;;;;6218510;23;20408;-91
2022/09/24 12:13:14;;;;;;;6.50;1.20;;;;;;;;;;6215741;23;20396;-92
2022/09/24 12:15:45;;;;;;;6.03;1.20;;;;;;;;;;6191808;23;20384;-93
2022/09/24 12:18:17;;;;;;;5.23;1.47;;;;;;;;;;6216055;23;20432;-90
2022/09/24 12:20:46;;;;;;;3.80;0.90;;;;;;;;;;6214869;23;20421;-90
2022/09/24 12:23:15;;;;;;;4.23;1.07;;;;;;;;;;6192330;23;20388;-91
2022/09/24 12:25:44;;;;;;;7.07;1.47;;;;;;;;;;6192119;23;20391;-92
2022/09/24 12:32:52;;;;;;;3.80;1.00;;;;;;;;;;6190334;23;20392;-92
2022/09/24 12:33:48;;;;;;;7.17;1.30;;;;;;;;;;6214395;23;20486;-89
2022/09/24 12:36:34;;;;;;;4.07;1.03;;;;;;;;;;6215609;23;20435;-90
2022/09/24 12:39:03;;;;;;;4.50;1.20;;;;;;;;;;6214809;23;20396;-90
2022/09/24 12:41:37;;;;;;;10.00;2.10;;;;;;;;;;6216983;23;20396;-91
2022/09/24 12:44:06;;;;;;;3.47;1.10;;;;;;;;;;6190418;23;20372;-91
2022/09/24 12:46:34;;;;;;;4.10;1.60;;;;;;;;;;6190655;23;20430;-90
2022/09/24 12:49:02;;;;;;;8.83;3.03;;;;;;;;;;6216326;23;20458;-91
2022/09/24 12:51:36;;;;;;;7.00;1.53;;;;;;;;;;6190307;23;20450;-92
2022/09/24 12:54:29;;;;;;;10.90;2.47;;;;;;;;;;6191053;23;20388;-92
2022/09/24 12:57:23;;;;;;;7.00;1.43;;;;;;;;;;6203343;23;20777;-91
2022/09/24 12:59:53;;;;;;;6.27;1.23;;;;;;;;;;6212182;23;20428;-91
2022/09/24 13:02:32;;;;;;;9.80;1.67;;;;;;;;;;6190124;23;20419;-92
2022/09/24 13:05:01;;;;;;;12.07;2.60;;;;;;;;;;6215272;23;20965;-91
2022/09/24 13:07:32;;;;;;;10.60;2.80;;;;;;;;;;6214034;23;20411;-91
2022/09/24 13:10:29;;;;;;;3.20;1.03;;;;;;;;;;6189907;23;20403;-91
2022/09/24 13:12:58;;;;;;;5.90;1.90;;;;;;;;;;6196160;23;20893;-91
2022/09/24 13:15:38;;;;;;;8.27;2.43;;;;;;;;;;6215014;23;20422;-91
2022/09/24 13:18:12;;;;;;;8.73;1.40;;;;;;;;;;6190058;23;20514;-91
2022/09/24 13:20:41;;;;;;;9.00;1.90;;;;;;;;;;6215044;23;20417;-90
2022/09/24 13:23:19;;;;;;;3.30;1.03;;;;;;;;;;6214682;23;20390;-88
2022/09/24 13:33:00;;;;;;;7.30;1.93;;;;;;;;;;6216508;23;20430;-90
2022/09/24 13:35:30;;;;;;;10.00;1.63;;;;;;;;;;6214565;23;20414;-91
2022/09/24 13:38:04;;;;;;;14.00;2.40;;;;;;;;;;6189724;23;20938;-91
2022/09/24 13:40:32;;;;;;;11.67;2.00;;;;;;;;;;6189608;23;20399;-90
2022/09/24 13:43:36;;;;;;;8.60;1.97;;;;;;;;;;6190081;23;20410;-90
2022/09/24 13:46:11;;;;;;;9.33;1.63;;;;;;;;;;6129402;23;20915;-92
2022/09/24 13:48:40;;;;;;;12.17;2.07;;;;;;;;;;6104571;23;20439;-89
2022/09/24 13:51:10;;;;;;;9.97;2.33;;;;;;;;;;6128531;23;20409;-89
2022/09/24 13:53:48;;;;;;;10.63;1.70;;;;;;;;;;6153165;23;20417;-90
2022/09/24 13:56:20;;;;;;;9.07;2.10;;;;;;;;;;6128975;23;20401;-90
2022/09/24 13:58:50;;;;;;;10.97;2.20;;;;;;;;;;6153813;23;20409;-90
2022/09/24 14:01:21;;;;;;;6.87;1.83;;;;;;;;;;6129405;23;20867;-89
2022/09/24 14:04:24;;;;;;;13.60;2.10;;;;;;;;;;6129638;23;20416;-90
2022/09/24 14:06:52;;;;;;;10.70;2.47;;;;;;;;;;6066504;23;20411;-91
2022/09/24 14:09:32;;;;;;;20.00;2.00;;;;;;;;;;6043145;23;20443;-91
2022/09/24 14:12:14;;;;;;;9.50;2.13;;;;;;;;;;6042207;23;20412;-93
2022/09/24 14:14:46;;;;;;;8.53;1.90;;;;;;;;;;6042229;23;20418;-91
2022/09/24 14:17:31;;;;;;;115.23;6.43;;;;;;;;;;6065949;23;20451;-93
2022/09/24 14:19:58;;;;;;;13.43;2.50;;;;;;;;;;6082959;23;20483;-90
2022/09/24 14:22:29;;;;;;;11.47;1.87;;;;;;;;;;6107428;23;20742;-91
2022/09/24 14:24:58;;;;;;;26.57;2.63;;;;;;;;;;6106760;23;20413;-90
2022/09/24 14:27:26;;;;;;;13.97;2.37;;;;;;;;;;6108002;23;20712;-91
2022/09/24 14:29:55;;;;;;;16.70;1.90;;;;;;;;;;6106401;23;20440;-88
2022/09/24 14:32:30;;;;;;;12.03;2.00;;;;;;;;;;6107032;23;20409;-90
2022/09/24 14:35:04;;;;;;;16.60;2.13;;;;;;;;;;6105734;23;20740;-90
2022/09/24 14:37:33;;;;;;;13.73;2.40;;;;;;;;;;6131213;23;20463;-90
2022/09/24 14:40:07;;;;;;;9.00;1.83;;;;;;;;;;6164075;23;20407;-90
2022/09/24 14:43:02;;;;;;;12.50;2.40;;;;;;;;;;6191903;23;20384;-90
2022/09/24 14:45:39;;;;;;;12.27;1.93;;;;;;;;;;6214707;23;20407;-90
2022/09/24 14:48:28;;;;;;;55.03;4.50;;;;;;;;;;6192767;23;20434;-89
2022/09/24 14:50:56;;;;;;;27.60;3.13;;;;;;;;;;6191100;23;20435;-89
2022/09/24 14:53:23;;;;;;;18.00;2.23;;;;;;;;;;6191328;23;20891;-88
2022/09/24 14:55:51;;;;;;;14.37;2.10;;;;;;;;;;6216586;23;20913;-89
2022/09/24 14:58:23;;;;;;;14.90;3.47;;;;;;;;;;6215521;23;20442;-89
2022/09/24 15:00:53;;;;;;;9.90;2.03;;;;;;;;;;6190756;23;20434;-89
2022/09/24 15:03:27;;;;;;;19.17;3.13;;;;;;;;;;6216218;23;20392;-89
2022/09/24 15:06:05;;;;;;;28.03;3.50;;;;;;;;;;6191960;23;20414;-89
2022/09/24 15:08:32;;;;;;;33.13;2.50;;;;;;;;;;6190498;23;20486;-89
2022/09/24 15:11:03;;;;;;;29.67;3.20;;;;;;;;;;6191485;23;20435;-89
2022/09/24 15:13:34;;;;;;;21.77;2.57;;;;;;;;;;6216845;23;20400;-89
2022/09/24 15:16:04;;;;;;;29.17;3.33;;;;;;;;;;6215830;23;20964;-89
2022/09/24 15:18:34;;;;;;;38.93;2.80;;;;;;;;;;6191863;23;20489;-89
2022/09/24 15:21:05;;;;;;;30.97;2.90;;;;;;;;;;6191808;23;20400;-89
2022/09/24 15:23:32;;;;;;;14.23;2.70;;;;;;;;;;6215917;23;20458;-89
2022/09/24 15:26:01;;;;;;;12.20;2.30;;;;;;;;;;6191552;23;20400;-89
2022/09/24 15:28:28;;;;;;;18.00;2.60;;;;;;;;;;6215303;23;20448;-90
2022/09/24 15:30:56;;;;;;;15.93;2.50;;;;;;;;;;6215605;23;20431;-89
2022/09/24 15:33:24;;;;;;;18.27;2.97;;;;;;;;;;6215359;23;20396;-89
2022/09/24 15:35:51;;;;;;;17.67;2.97;;;;;;;;;;6216883;23;20418;-89
2022/09/24 15:38:19;;;;;;;15.17;2.30;;;;;;;;;;6215796;23;20431;-89
2022/09/24 15:40:50;;;;;;;13.53;2.50;;;;;;;;;;6191773;23;20434;-89
2022/09/24 15:43:21;;;;;;;18.03;2.70;;;;;;;;;;6215868;23;20400;-89
2022/09/24 15:45:49;;;;;;;17.33;3.00;;;;;;;;;;6190782;23;20404;-89
2022/09/24 15:48:17;;;;;;;13.33;2.50;;;;;;;;;;6191016;23;20423;-89
2022/09/24 15:50:45;;;;;;;15.10;2.30;;;;;;;;;;6190623;23;20894;-89
2022/09/24 15:53:16;;;;;;;11.03;2.30;;;;;;;;;;6191432;23;20780;-89
2022/09/24 15:55:48;;;;;;;17.33;2.47;;;;;;;;;;6215501;23;20474;-89
2022/09/24 15:58:16;;;;;;;18.60;2.40;;;;;;;;;;6215146;23;20470;-89
2022/09/24 16:00:45;;;;;;;10.73;2.20;;;;;;;;;;6215355;23;20427;-89